sensor_id;sensor_type;location;lat;lon;timestamp;temperature;humidity
47861;HTU21D;33620;52.340;5.984;2023-02-15T00:01:25;2.94;84.25
47861;HTU21D;33620;52.340;5.984;2023-02-15T00:03:50;2.91;84.20
47861;HTU21D;33620;52.340;5.984;2023-02-15T00:06:16;2.87;84.28
47861;HTU21D;33620;52.340;5.984;2023-02-15T00:08:42;2.83;84.35
47861;HTU21D;33620;52.340;5.984;2023-02-15T00:11:09;2.86;84.42
47861;HTU21D;33620;52.340;5.984;2023-02-15T00:13:35;2.83;84.03
47861;HTU21D;33620;52.340;5.984;2023-02-15T00:16:06;2.78;84.06
47861;HTU21D;33620;52.340;5.984;2023-02-15T00:18:32;2.80;83.99
47861;HTU21D;33620;52.340;5.984;2023-02-15T00:20:58;2.72;83.55
47861;HTU21D;33620;52.340;5.984;2023-02-15T00:23:27;2.59;83.78
47861;HTU21D;33620;52.340;5.984;2023-02-15T00:26:03;2.50;84.41
47861;HTU21D;33620;52.340;5.984;2023-02-15T00:28:29;2.46;84.74
47861;HTU21D;33620;52.340;5.984;2023-02-15T00:33:29;2.43;85.09
47861;HTU21D;33620;52.340;5.984;2023-02-15T00:35:58;2.44;85.09
47861;HTU21D;33620;52.340;5.984;2023-02-15T00:38:24;2.47;85.05
47861;HTU21D;33620;52.340;5.984;2023-02-15T00:40:54;2.44;84.82
47861;HTU21D;33620;52.340;5.984;2023-02-15T00:43:19;2.41;84.79
47861;HTU21D;33620;52.340;5.984;2023-02-15T00:45:45;2.37;84.86
47861;HTU21D;33620;52.340;5.984;2023-02-15T00:48:11;2.35;85.09
47861;HTU21D;33620;52.340;5.984;2023-02-15T00:50:37;2.34;85.19
47861;HTU21D;33620;52.340;5.984;2023-02-15T00:53:03;2.30;85.02
47861;HTU21D;33620;52.340;5.984;2023-02-15T00:55:28;2.28;85.38
47861;HTU21D;33620;52.340;5.984;2023-02-15T00:57:53;2.31;85.54
47861;HTU21D;33620;52.340;5.984;2023-02-15T01:00:19;2.36;85.67
47861;HTU21D;33620;52.340;5.984;2023-02-15T01:02:44;2.38;85.65
47861;HTU21D;33620;52.340;5.984;2023-02-15T01:05:09;2.38;85.44
47861;HTU21D;33620;52.340;5.984;2023-02-15T01:07:35;2.34;85.45
47861;HTU21D;33620;52.340;5.984;2023-02-15T01:10:00;2.30;85.79
47861;HTU21D;33620;52.340;5.984;2023-02-15T01:12:25;2.37;85.73
47861;HTU21D;33620;52.340;5.984;2023-02-15T01:14:51;2.41;85.46
47861;HTU21D;33620;52.340;5.984;2023-02-15T01:17:16;2.35;85.11
47861;HTU21D;33620;52.340;5.984;2023-02-15T01:19:42;2.29;85.03
47861;HTU21D;33620;52.340;5.984;2023-02-15T01:22:07;2.23;85.09
47861;HTU21D;33620;52.340;5.984;2023-02-15T01:24:32;2.17;85.29
47861;HTU21D;33620;52.340;5.984;2023-02-15T01:26:58;2.14;85.53
47861;HTU21D;33620;52.340;5.984;2023-02-15T01:29:26;2.16;85.50
47861;HTU21D;33620;52.340;5.984;2023-02-15T01:31:52;2.20;85.51
47861;HTU21D;33620;52.340;5.984;2023-02-15T01:34:17;2.21;85.23
47861;HTU21D;33620;52.340;5.984;2023-02-15T01:36:43;2.16;85.14
47861;HTU21D;33620;52.340;5.984;2023-02-15T01:39:08;2.19;85.14
47861;HTU21D;33620;52.340;5.984;2023-02-15T01:41:35;2.19;84.99
47861;HTU21D;33620;52.340;5.984;2023-02-15T01:44:02;2.19;85.00
47861;HTU21D;33620;52.340;5.984;2023-02-15T01:46:33;2.19;84.94
47861;HTU21D;33620;52.340;5.984;2023-02-15T01:49:03;2.19;84.81
47861;HTU21D;33620;52.340;5.984;2023-02-15T01:51:32;2.16;84.86
47861;HTU21D;33620;52.340;5.984;2023-02-15T01:54:08;2.19;84.84
47861;HTU21D;33620;52.340;5.984;2023-02-15T01:56:37;2.15;84.56
47861;HTU21D;33620;52.340;5.984;2023-02-15T01:59:08;2.08;84.59
47861;HTU21D;33620;52.340;5.984;2023-02-15T02:01:34;2.03;84.75
47861;HTU21D;33620;52.340;5.984;2023-02-15T02:06:33;1.97;85.24
47861;HTU21D;33620;52.340;5.984;2023-02-15T02:08:58;1.92;85.55
47861;HTU21D;33620;52.340;5.984;2023-02-15T02:11:25;1.87;85.71
47861;HTU21D;33620;52.340;5.984;2023-02-15T02:13:51;1.83;86.11
47861;HTU21D;33620;52.340;5.984;2023-02-15T02:34:49;1.57;87.41
47861;HTU21D;33620;52.340;5.984;2023-02-15T02:37:20;1.66;87.49
47861;HTU21D;33620;52.340;5.984;2023-02-15T02:47:54;1.65;87.41
47861;HTU21D;33620;52.340;5.984;2023-02-15T02:50:25;1.60;87.35
47861;HTU21D;33620;52.340;5.984;2023-02-15T02:52:53;1.53;87.15
47861;HTU21D;33620;52.340;5.984;2023-02-15T02:55:35;1.47;87.54
47861;HTU21D;33620;52.340;5.984;2023-02-15T03:00:55;1.41;87.53
47861;HTU21D;33620;52.340;5.984;2023-02-15T03:03:36;1.39;87.85
47861;HTU21D;33620;52.340;5.984;2023-02-15T03:06:11;1.43;88.19
47861;HTU21D;33620;52.340;5.984;2023-02-15T03:08:42;1.47;88.39
47861;HTU21D;33620;52.340;5.984;2023-02-15T03:11:08;1.50;88.48
47861;HTU21D;33620;52.340;5.984;2023-02-15T03:13:34;1.54;88.71
47861;HTU21D;33620;52.340;5.984;2023-02-15T03:16:01;1.58;88.65
47861;HTU21D;33620;52.340;5.984;2023-02-15T03:18:49;1.65;88.72
47861;HTU21D;33620;52.340;5.984;2023-02-15T03:21:26;1.66;88.61
47861;HTU21D;33620;52.340;5.984;2023-02-15T03:23:55;1.68;88.57
47861;HTU21D;33620;52.340;5.984;2023-02-15T03:26:23;1.69;88.45
47861;HTU21D;33620;52.340;5.984;2023-02-15T03:28:50;1.65;88.13
47861;HTU21D;33620;52.340;5.984;2023-02-15T03:31:19;1.66;88.16
47861;HTU21D;33620;52.340;5.984;2023-02-15T03:33:54;1.65;88.17
47861;HTU21D;33620;52.340;5.984;2023-02-15T03:36:24;1.62;87.99
47861;HTU21D;33620;52.340;5.984;2023-02-15T03:41:34;1.65;87.67
47861;HTU21D;33620;52.340;5.984;2023-02-15T03:44:16;1.62;87.54
47861;HTU21D;33620;52.340;5.984;2023-02-15T03:46:48;1.65;87.43
47861;HTU21D;33620;52.340;5.984;2023-02-15T03:49:43;1.65;87.29
47861;HTU21D;33620;52.340;5.984;2023-02-15T03:52:11;1.67;87.18
47861;HTU21D;33620;52.340;5.984;2023-02-15T03:54:38;1.64;87.02
47861;HTU21D;33620;52.340;5.984;2023-02-15T03:57:10;1.62;86.86
47861;HTU21D;33620;52.340;5.984;2023-02-15T03:59:54;1.58;86.74
47861;HTU21D;33620;52.340;5.984;2023-02-15T04:05:29;1.60;86.91
47861;HTU21D;33620;52.340;5.984;2023-02-15T04:07:54;1.60;86.80
47861;HTU21D;33620;52.340;5.984;2023-02-15T04:10:19;1.60;86.93
47861;HTU21D;33620;52.340;5.984;2023-02-15T04:13:03;1.63;86.85
47861;HTU21D;33620;52.340;5.984;2023-02-15T04:15:28;1.58;86.90
47861;HTU21D;33620;52.340;5.984;2023-02-15T04:18:12;1.62;86.99
47861;HTU21D;33620;52.340;5.984;2023-02-15T04:20:38;1.62;86.96
47861;HTU21D;33620;52.340;5.984;2023-02-15T04:23:21;1.62;86.99
47861;HTU21D;33620;52.340;5.984;2023-02-15T04:26:06;1.61;87.08
47861;HTU21D;33620;52.340;5.984;2023-02-15T04:28:31;1.61;86.96
47861;HTU21D;33620;52.340;5.984;2023-02-15T04:30:57;1.63;87.22
47861;HTU21D;33620;52.340;5.984;2023-02-15T04:33:22;1.64;87.21
47861;HTU21D;33620;52.340;5.984;2023-02-15T04:35:47;1.66;87.02
47861;HTU21D;33620;52.340;5.984;2023-02-15T04:38:13;1.62;86.93
47861;HTU21D;33620;52.340;5.984;2023-02-15T04:40:38;1.62;86.74
47861;HTU21D;33620;52.340;5.984;2023-02-15T04:43:03;1.56;86.81
47861;HTU21D;33620;52.340;5.984;2023-02-15T04:45:29;1.56;86.88
47861;HTU21D;33620;52.340;5.984;2023-02-15T04:47:54;1.52;86.89
47861;HTU21D;33620;52.340;5.984;2023-02-15T04:50:20;1.47;86.93
47861;HTU21D;33620;52.340;5.984;2023-02-15T04:52:45;1.45;87.09
47861;HTU21D;33620;52.340;5.984;2023-02-15T04:55:11;1.39;87.22
47861;HTU21D;33620;52.340;5.984;2023-02-15T04:57:36;1.35;87.44
47861;HTU21D;33620;52.340;5.984;2023-02-15T05:00:02;1.37;87.66
47861;HTU21D;33620;52.340;5.984;2023-02-15T05:02:30;1.39;87.53
47861;HTU21D;33620;52.340;5.984;2023-02-15T05:04:55;1.34;87.46
47861;HTU21D;33620;52.340;5.984;2023-02-15T05:07:20;1.34;87.61
47861;HTU21D;33620;52.340;5.984;2023-02-15T05:09:46;1.33;87.58
47861;HTU21D;33620;52.340;5.984;2023-02-15T05:12:11;1.31;87.54
47861;HTU21D;33620;52.340;5.984;2023-02-15T05:14:36;1.27;87.60
47861;HTU21D;33620;52.340;5.984;2023-02-15T05:17:02;1.27;87.59
47861;HTU21D;33620;52.340;5.984;2023-02-15T05:19:28;1.25;87.51
47861;HTU21D;33620;52.340;5.984;2023-02-15T05:21:54;1.28;87.70
47861;HTU21D;33620;52.340;5.984;2023-02-15T05:24:19;1.33;87.61
47861;HTU21D;33620;52.340;5.984;2023-02-15T05:27:03;1.37;87.25
47861;HTU21D;33620;52.340;5.984;2023-02-15T05:29:47;1.43;87.08
47861;HTU21D;33620;52.340;5.984;2023-02-15T05:32:13;1.47;86.90
47861;HTU21D;33620;52.340;5.984;2023-02-15T05:34:39;1.49;86.89
47861;HTU21D;33620;52.340;5.984;2023-02-15T05:37:05;1.47;86.58
47861;HTU21D;33620;52.340;5.984;2023-02-15T05:39:30;1.40;86.44
47861;HTU21D;33620;52.340;5.984;2023-02-15T05:42:01;1.37;86.41
47861;HTU21D;33620;52.340;5.984;2023-02-15T05:44:26;1.39;86.51
47861;HTU21D;33620;52.340;5.984;2023-02-15T05:46:52;1.39;86.41
47861;HTU21D;33620;52.340;5.984;2023-02-15T05:49:17;1.37;86.28
47861;HTU21D;33620;52.340;5.984;2023-02-15T05:51:42;1.37;86.18
47861;HTU21D;33620;52.340;5.984;2023-02-15T05:54:08;1.34;86.12
47861;HTU21D;33620;52.340;5.984;2023-02-15T05:56:33;1.33;86.17
47861;HTU21D;33620;52.340;5.984;2023-02-15T05:58:58;1.32;86.12
47861;HTU21D;33620;52.340;5.984;2023-02-15T06:01:24;1.26;86.12
47861;HTU21D;33620;52.340;5.984;2023-02-15T06:03:49;1.27;86.10
47861;HTU21D;33620;52.340;5.984;2023-02-15T06:06:15;1.26;86.09
47861;HTU21D;33620;52.340;5.984;2023-02-15T06:08:40;1.26;86.01
47861;HTU21D;33620;52.340;5.984;2023-02-15T06:11:06;1.25;85.91
47861;HTU21D;33620;52.340;5.984;2023-02-15T06:13:33;1.23;85.72
47861;HTU21D;33620;52.340;5.984;2023-02-15T06:15:58;1.22;85.86
47861;HTU21D;33620;52.340;5.984;2023-02-15T06:18:24;1.24;85.91
47861;HTU21D;33620;52.340;5.984;2023-02-15T06:20:49;1.25;85.87
47861;HTU21D;33620;52.340;5.984;2023-02-15T06:23:15;1.26;85.85
47861;HTU21D;33620;52.340;5.984;2023-02-15T06:25:41;1.26;85.84
47861;HTU21D;33620;52.340;5.984;2023-02-15T06:28:07;1.25;85.64
47861;HTU21D;33620;52.340;5.984;2023-02-15T06:30:32;1.23;85.64
47861;HTU21D;33620;52.340;5.984;2023-02-15T06:32:57;1.24;85.67
47861;HTU21D;33620;52.340;5.984;2023-02-15T06:35:23;1.24;85.67
47861;HTU21D;33620;52.340;5.984;2023-02-15T06:37:48;1.25;85.78
47861;HTU21D;33620;52.340;5.984;2023-02-15T06:40:14;1.28;85.93
47861;HTU21D;33620;52.340;5.984;2023-02-15T06:42:41;1.29;85.93
47861;HTU21D;33620;52.340;5.984;2023-02-15T06:45:07;1.31;85.85
47861;HTU21D;33620;52.340;5.984;2023-02-15T06:47:32;1.27;85.87
47861;HTU21D;33620;52.340;5.984;2023-02-15T06:49:58;1.25;86.20
47861;HTU21D;33620;52.340;5.984;2023-02-15T06:52:24;1.28;86.45
47861;HTU21D;33620;52.340;5.984;2023-02-15T06:54:49;1.31;86.41
47861;HTU21D;33620;52.340;5.984;2023-02-15T06:57:14;1.31;86.51
47861;HTU21D;33620;52.340;5.984;2023-02-15T06:59:40;1.29;86.52
47861;HTU21D;33620;52.340;5.984;2023-02-15T07:02:05;1.26;86.57
47861;HTU21D;33620;52.340;5.984;2023-02-15T07:04:31;1.26;86.84
47861;HTU21D;33620;52.340;5.984;2023-02-15T07:06:56;1.26;86.87
47861;HTU21D;33620;52.340;5.984;2023-02-15T07:09:22;1.24;87.06
47861;HTU21D;33620;52.340;5.984;2023-02-15T07:11:47;1.19;87.17
47861;HTU21D;33620;52.340;5.984;2023-02-15T07:14:31;1.18;87.34
47861;HTU21D;33620;52.340;5.984;2023-02-15T07:16:57;1.16;87.57
47861;HTU21D;33620;52.340;5.984;2023-02-15T07:19:22;1.16;87.70
47861;HTU21D;33620;52.340;5.984;2023-02-15T07:21:47;1.17;87.89
47861;HTU21D;33620;52.340;5.984;2023-02-15T07:24:13;1.21;88.04
47861;HTU21D;33620;52.340;5.984;2023-02-15T07:26:39;1.19;87.93
47861;HTU21D;33620;52.340;5.984;2023-02-15T07:29:04;1.20;87.97
47861;HTU21D;33620;52.340;5.984;2023-02-15T07:31:30;1.21;88.02
47861;HTU21D;33620;52.340;5.984;2023-02-15T07:33:55;1.21;88.17
47861;HTU21D;33620;52.340;5.984;2023-02-15T07:36:20;1.19;88.33
47861;HTU21D;33620;52.340;5.984;2023-02-15T07:38:46;1.20;88.44
47861;HTU21D;33620;52.340;5.984;2023-02-15T07:41:13;1.22;88.59
47861;HTU21D;33620;52.340;5.984;2023-02-15T07:43:41;1.23;88.64
47861;HTU21D;33620;52.340;5.984;2023-02-15T07:46:09;1.24;88.68
47861;HTU21D;33620;52.340;5.984;2023-02-15T07:48:37;1.25;88.69
47861;HTU21D;33620;52.340;5.984;2023-02-15T07:51:05;1.26;88.78
47861;HTU21D;33620;52.340;5.984;2023-02-15T07:53:32;1.28;88.77
47861;HTU21D;33620;52.340;5.984;2023-02-15T07:56:02;1.32;88.77
47861;HTU21D;33620;52.340;5.984;2023-02-15T07:58:28;1.33;88.78
47861;HTU21D;33620;52.340;5.984;2023-02-15T08:01:13;1.35;88.84
47861;HTU21D;33620;52.340;5.984;2023-02-15T08:03:39;1.35;88.89
47861;HTU21D;33620;52.340;5.984;2023-02-15T08:06:04;1.38;88.96
47861;HTU21D;33620;52.340;5.984;2023-02-15T08:08:29;1.40;89.18
47861;HTU21D;33620;52.340;5.984;2023-02-15T08:13:47;1.50;89.19
47861;HTU21D;33620;52.340;5.984;2023-02-15T08:19:05;1.61;89.29
47861;HTU21D;33620;52.340;5.984;2023-02-15T08:21:33;1.66;89.34
47861;HTU21D;33620;52.340;5.984;2023-02-15T08:23:58;1.72;89.31
47861;HTU21D;33620;52.340;5.984;2023-02-15T08:26:25;1.75;89.33
47861;HTU21D;33620;52.340;5.984;2023-02-15T08:28:51;1.79;89.43
47861;HTU21D;33620;52.340;5.984;2023-02-15T08:31:17;1.81;89.62
47861;HTU21D;33620;52.340;5.984;2023-02-15T08:33:44;1.86;89.86
47861;HTU21D;33620;52.340;5.984;2023-02-15T08:36:13;1.93;89.87
47861;HTU21D;33620;52.340;5.984;2023-02-15T08:38:39;1.97;89.90
47861;HTU21D;33620;52.340;5.984;2023-02-15T08:41:19;2.05;89.99
47861;HTU21D;33620;52.340;5.984;2023-02-15T08:43:48;2.10;89.98
47861;HTU21D;33620;52.340;5.984;2023-02-15T08:46:15;2.16;90.15
47861;HTU21D;33620;52.340;5.984;2023-02-15T08:48:41;2.23;90.19
47861;HTU21D;33620;52.340;5.984;2023-02-15T08:51:18;2.30;90.33
47861;HTU21D;33620;52.340;5.984;2023-02-15T08:53:47;2.36;90.46
47861;HTU21D;33620;52.340;5.984;2023-02-15T08:56:14;2.41;90.53
47861;HTU21D;33620;52.340;5.984;2023-02-15T08:58:40;2.45;90.63
47861;HTU21D;33620;52.340;5.984;2023-02-15T09:01:10;2.52;91.11
47861;HTU21D;33620;52.340;5.984;2023-02-15T09:03:36;2.58;91.51
47861;HTU21D;33620;52.340;5.984;2023-02-15T09:06:01;2.66;91.67
47861;HTU21D;33620;52.340;5.984;2023-02-15T09:08:27;2.73;91.96
47861;HTU21D;33620;52.340;5.984;2023-02-15T09:10:53;2.82;92.27
47861;HTU21D;33620;52.340;5.984;2023-02-15T09:13:19;2.88;92.33
47861;HTU21D;33620;52.340;5.984;2023-02-15T09:15:45;2.94;92.48
47861;HTU21D;33620;52.340;5.984;2023-02-15T09:18:11;3.02;92.63
47861;HTU21D;33620;52.340;5.984;2023-02-15T09:20:42;3.10;92.75
47861;HTU21D;33620;52.340;5.984;2023-02-15T09:23:07;3.16;92.94
47861;HTU21D;33620;52.340;5.984;2023-02-15T09:25:34;3.25;93.14
47861;HTU21D;33620;52.340;5.984;2023-02-15T09:27:59;3.32;93.24
47861;HTU21D;33620;52.340;5.984;2023-02-15T09:30:25;3.36;93.26
47861;HTU21D;33620;52.340;5.984;2023-02-15T09:32:50;3.42;93.36
47861;HTU21D;33620;52.340;5.984;2023-02-15T09:35:15;3.49;93.47
47861;HTU21D;33620;52.340;5.984;2023-02-15T09:37:41;3.54;93.61
47861;HTU21D;33620;52.340;5.984;2023-02-15T09:40:06;3.59;93.70
47861;HTU21D;33620;52.340;5.984;2023-02-15T09:45:38;3.73;94.02
47861;HTU21D;33620;52.340;5.984;2023-02-15T09:48:38;3.80;94.14
47861;HTU21D;33620;52.340;5.984;2023-02-15T09:51:22;3.91;94.32
47861;HTU21D;33620;52.340;5.984;2023-02-15T09:54:13;3.99;94.36
47861;HTU21D;33620;52.340;5.984;2023-02-15T09:56:54;4.05;94.36
47861;HTU21D;33620;52.340;5.984;2023-02-15T09:59:35;4.14;94.51
47861;HTU21D;33620;52.340;5.984;2023-02-15T10:15:35;4.64;94.30
47861;HTU21D;33620;52.340;5.984;2023-02-15T10:20:55;4.78;94.04
47861;HTU21D;33620;52.340;5.984;2023-02-15T10:28:46;4.94;93.52
47861;HTU21D;33620;52.340;5.984;2023-02-15T10:31:24;5.02;93.52
47861;HTU21D;33620;52.340;5.984;2023-02-15T10:42:25;5.35;93.36
47861;HTU21D;33620;52.340;5.984;2023-02-15T10:45:18;5.42;93.17
47861;HTU21D;33620;52.340;5.984;2023-02-15T10:50:30;5.59;92.85
47861;HTU21D;33620;52.340;5.984;2023-02-15T10:53:09;5.68;93.06
47861;HTU21D;33620;52.340;5.984;2023-02-15T11:06:21;6.10;91.72
47861;HTU21D;33620;52.340;5.984;2023-02-15T11:08:50;6.16;91.35
47861;HTU21D;33620;52.340;5.984;2023-02-15T11:11:23;6.25;91.21
47861;HTU21D;33620;52.340;5.984;2023-02-15T11:13:53;6.35;90.85
47861;HTU21D;33620;52.340;5.984;2023-02-15T11:16:29;6.41;90.66
47861;HTU21D;33620;52.340;5.984;2023-02-15T11:19:00;6.49;90.66
47861;HTU21D;33620;52.340;5.984;2023-02-15T11:21:39;6.59;90.89
47861;HTU21D;33620;52.340;5.984;2023-02-15T11:24:10;6.68;90.53
47861;HTU21D;33620;52.340;5.984;2023-02-15T11:26:46;6.82;90.08
47861;HTU21D;33620;52.340;5.984;2023-02-15T11:31:50;7.01;89.25
47861;HTU21D;33620;52.340;5.984;2023-02-15T11:34:24;7.12;88.43
47861;HTU21D;33620;52.340;5.984;2023-02-15T11:36:54;7.24;87.92
47861;HTU21D;33620;52.340;5.984;2023-02-15T11:39:21;7.29;87.74
47861;HTU21D;33620;52.340;5.984;2023-02-15T11:41:52;7.42;87.87
47861;HTU21D;33620;52.340;5.984;2023-02-15T11:44:26;7.54;87.26
47861;HTU21D;33620;52.340;5.984;2023-02-15T11:46:53;7.61;86.87
47861;HTU21D;33620;52.340;5.984;2023-02-15T11:49:31;7.72;86.32
47861;HTU21D;33620;52.340;5.984;2023-02-15T11:51:58;7.83;85.99
47861;HTU21D;33620;52.340;5.984;2023-02-15T11:54:30;7.92;85.59
47861;HTU21D;33620;52.340;5.984;2023-02-15T11:57:01;8.01;85.49
47861;HTU21D;33620;52.340;5.984;2023-02-15T11:59:32;8.07;85.12
47861;HTU21D;33620;52.340;5.984;2023-02-15T12:01:58;8.16;85.24
47861;HTU21D;33620;52.340;5.984;2023-02-15T12:04:36;8.29;84.31
47861;HTU21D;33620;52.340;5.984;2023-02-15T12:07:11;8.37;83.91
47861;HTU21D;33620;52.340;5.984;2023-02-15T12:13:12;8.56;83.13
47861;HTU21D;33620;52.340;5.984;2023-02-15T12:15:41;8.66;83.07
47861;HTU21D;33620;52.340;5.984;2023-02-15T12:20:46;8.86;81.97
47861;HTU21D;33620;52.340;5.984;2023-02-15T12:23:14;8.96;81.80
47861;HTU21D;33620;52.340;5.984;2023-02-15T12:25:51;9.07;81.14
47861;HTU21D;33620;52.340;5.984;2023-02-15T12:28:35;9.16;80.48
47861;HTU21D;33620;52.340;5.984;2023-02-15T12:31:04;9.19;80.13
47861;HTU21D;33620;52.340;5.984;2023-02-15T12:33:38;9.27;75.52
47861;HTU21D;33620;52.340;5.984;2023-02-15T12:38:35;9.46;75.63
47861;HTU21D;33620;52.340;5.984;2023-02-15T12:41:21;9.53;75.60
47861;HTU21D;33620;52.340;5.984;2023-02-15T12:44:04;9.59;74.20
47861;HTU21D;33620;52.340;5.984;2023-02-15T12:46:29;9.63;73.89
47861;HTU21D;33620;52.340;5.984;2023-02-15T12:49:16;9.74;73.52
47861;HTU21D;33620;52.340;5.984;2023-02-15T12:52:43;9.83;73.30
47861;HTU21D;33620;52.340;5.984;2023-02-15T12:54:50;9.90;72.32
47861;HTU21D;33620;52.340;5.984;2023-02-15T12:57:32;9.96;71.62
47861;HTU21D;33620;52.340;5.984;2023-02-15T13:00:00;9.99;71.51
47861;HTU21D;33620;52.340;5.984;2023-02-15T13:02:44;10.09;68.40
47861;HTU21D;33620;52.340;5.984;2023-02-15T13:07:47;10.41;68.99
47861;HTU21D;33620;52.340;5.984;2023-02-15T13:10:30;10.54;69.26
47861;HTU21D;33620;52.340;5.984;2023-02-15T13:12:57;10.63;69.26
47861;HTU21D;33620;52.340;5.984;2023-02-15T13:17:56;10.73;69.15
47861;HTU21D;33620;52.340;5.984;2023-02-15T13:20:22;10.81;68.35
47861;HTU21D;33620;52.340;5.984;2023-02-15T13:22:50;10.86;67.52
47861;HTU21D;33620;52.340;5.984;2023-02-15T13:25:20;10.93;67.54
47861;HTU21D;33620;52.340;5.984;2023-02-15T13:27:50;10.98;68.10
47861;HTU21D;33620;52.340;5.984;2023-02-15T13:30:23;10.99;68.10
47861;HTU21D;33620;52.340;5.984;2023-02-15T13:32:54;11.00;68.49
47861;HTU21D;33620;52.340;5.984;2023-02-15T13:35:21;10.96;67.67
47861;HTU21D;33620;52.340;5.984;2023-02-15T13:40:29;10.88;68.17
47861;HTU21D;33620;52.340;5.984;2023-02-15T13:43:35;10.83;68.87
47861;HTU21D;33620;52.340;5.984;2023-02-15T13:49:25;10.75;69.43
47861;HTU21D;33620;52.340;5.984;2023-02-15T13:52:05;10.74;69.55
47861;HTU21D;33620;52.340;5.984;2023-02-15T13:54:43;10.74;70.04
47861;HTU21D;33620;52.340;5.984;2023-02-15T14:00:36;10.75;70.57
47861;HTU21D;33620;52.340;5.984;2023-02-15T14:08:42;10.74;71.09
47861;HTU21D;33620;52.340;5.984;2023-02-15T14:16:47;10.70;69.99
47861;HTU21D;33620;52.340;5.984;2023-02-15T14:19:35;10.69;70.39
47861;HTU21D;33620;52.340;5.984;2023-02-15T14:22:37;10.67;70.59
47861;HTU21D;33620;52.340;5.984;2023-02-15T14:28:16;10.63;70.28
47861;HTU21D;33620;52.340;5.984;2023-02-15T14:30:46;10.62;70.31
47861;HTU21D;33620;52.340;5.984;2023-02-15T14:33:29;10.60;70.15
47861;HTU21D;33620;52.340;5.984;2023-02-15T14:35:56;10.63;70.32
47861;HTU21D;33620;52.340;5.984;2023-02-15T14:39:07;10.66;70.07
47861;HTU21D;33620;52.340;5.984;2023-02-15T14:42:01;10.67;69.04
47861;HTU21D;33620;52.340;5.984;2023-02-15T14:44:35;10.68;68.33
47861;HTU21D;33620;52.340;5.984;2023-02-15T14:47:10;10.68;68.26
47861;HTU21D;33620;52.340;5.984;2023-02-15T14:49:40;10.68;68.32
47861;HTU21D;33620;52.340;5.984;2023-02-15T14:52:08;10.68;68.66
47861;HTU21D;33620;52.340;5.984;2023-02-15T14:59:46;10.68;67.78
47861;HTU21D;33620;52.340;5.984;2023-02-15T15:04:54;10.65;68.51
47861;HTU21D;33620;52.340;5.984;2023-02-15T15:07:26;10.63;69.29
47861;HTU21D;33620;52.340;5.984;2023-02-15T15:10:00;10.63;69.31
47861;HTU21D;33620;52.340;5.984;2023-02-15T15:14:59;10.59;69.13
47861;HTU21D;33620;52.340;5.984;2023-02-15T15:20:56;10.53;69.67
47861;HTU21D;33620;52.340;5.984;2023-02-15T15:25:57;10.45;69.74
47861;HTU21D;33620;52.340;5.984;2023-02-15T15:31:09;10.37;69.20
47861;HTU21D;33620;52.340;5.984;2023-02-15T15:34:10;10.35;68.70
47861;HTU21D;33620;52.340;5.984;2023-02-15T15:37:00;10.31;68.77
47861;HTU21D;33620;52.340;5.984;2023-02-15T15:50:40;10.14;69.23
47861;HTU21D;33620;52.340;5.984;2023-02-15T15:53:16;10.15;69.13
47861;HTU21D;33620;52.340;5.984;2023-02-15T15:55:45;10.14;69.14
47861;HTU21D;33620;52.340;5.984;2023-02-15T15:58:14;10.11;69.36
47861;HTU21D;33620;52.340;5.984;2023-02-15T16:01:04;10.05;69.72
47861;HTU21D;33620;52.340;5.984;2023-02-15T16:03:32;10.01;70.18
47861;HTU21D;33620;52.340;5.984;2023-02-15T16:05:57;9.96;70.39
47861;HTU21D;33620;52.340;5.984;2023-02-15T16:08:38;9.92;70.64
47861;HTU21D;33620;52.340;5.984;2023-02-15T16:11:27;9.89;70.71
47861;HTU21D;33620;52.340;5.984;2023-02-15T16:13:54;9.84;70.81
47861;HTU21D;33620;52.340;5.984;2023-02-15T16:16:27;9.81;71.02
47861;HTU21D;33620;52.340;5.984;2023-02-15T16:18:55;9.76;71.34
47861;HTU21D;33620;52.340;5.984;2023-02-15T16:21:30;9.70;71.92
47861;HTU21D;33620;52.340;5.984;2023-02-15T16:27:04;9.59;72.79
47861;HTU21D;33620;52.340;5.984;2023-02-15T16:29:34;9.52;72.96
47861;HTU21D;33620;52.340;5.984;2023-02-15T16:32:04;9.47;73.19
47861;HTU21D;33620;52.340;5.984;2023-02-15T16:34:31;9.42;73.35
47861;HTU21D;33620;52.340;5.984;2023-02-15T16:37:17;9.36;73.61
47861;HTU21D;33620;52.340;5.984;2023-02-15T16:39:44;9.31;73.77
47861;HTU21D;33620;52.340;5.984;2023-02-15T16:42:11;9.26;74.09
47861;HTU21D;33620;52.340;5.984;2023-02-15T16:44:39;9.19;74.06
47861;HTU21D;33620;52.340;5.984;2023-02-15T16:47:12;9.16;74.34
47861;HTU21D;33620;52.340;5.984;2023-02-15T16:49:43;9.09;74.31
47861;HTU21D;33620;52.340;5.984;2023-02-15T16:52:15;9.06;74.56
47861;HTU21D;33620;52.340;5.984;2023-02-15T16:54:43;9.02;74.58
47861;HTU21D;33620;52.340;5.984;2023-02-15T16:57:20;8.96;74.78
47861;HTU21D;33620;52.340;5.984;2023-02-15T16:59:50;8.90;75.02
47861;HTU21D;33620;52.340;5.984;2023-02-15T17:02:19;8.86;75.28
47861;HTU21D;33620;52.340;5.984;2023-02-15T17:05:02;8.78;75.56
47861;HTU21D;33620;52.340;5.984;2023-02-15T17:07:30;8.74;75.67
47861;HTU21D;33620;52.340;5.984;2023-02-15T17:09:58;8.70;75.88
47861;HTU21D;33620;52.340;5.984;2023-02-15T17:12:52;8.65;76.13
47861;HTU21D;33620;52.340;5.984;2023-02-15T17:15:36;8.60;76.19
47861;HTU21D;33620;52.340;5.984;2023-02-15T17:18:05;8.56;76.37
47861;HTU21D;33620;52.340;5.984;2023-02-15T17:20:33;8.51;76.52
47861;HTU21D;33620;52.340;5.984;2023-02-15T17:22:59;8.47;76.85
47861;HTU21D;33620;52.340;5.984;2023-02-15T17:25:39;8.44;76.97
47861;HTU21D;33620;52.340;5.984;2023-02-15T17:28:17;8.41;77.02
47861;HTU21D;33620;52.340;5.984;2023-02-15T17:30:43;8.38;77.12
47861;HTU21D;33620;52.340;5.984;2023-02-15T17:33:37;8.36;77.27
47861;HTU21D;33620;52.340;5.984;2023-02-15T17:38:40;8.30;77.59
47861;HTU21D;33620;52.340;5.984;2023-02-15T17:41:06;8.29;77.75
47861;HTU21D;33620;52.340;5.984;2023-02-15T17:43:32;8.27;77.76
47861;HTU21D;33620;52.340;5.984;2023-02-15T17:45:57;8.24;77.90
47861;HTU21D;33620;52.340;5.984;2023-02-15T17:48:30;8.21;78.06
47861;HTU21D;33620;52.340;5.984;2023-02-15T17:50:58;8.19;78.16
47861;HTU21D;33620;52.340;5.984;2023-02-15T17:53:23;8.16;78.31
47861;HTU21D;33620;52.340;5.984;2023-02-15T17:55:50;8.15;78.37
47861;HTU21D;33620;52.340;5.984;2023-02-15T17:58:17;8.13;78.42
47861;HTU21D;33620;52.340;5.984;2023-02-15T18:00:51;8.08;78.40
47861;HTU21D;33620;52.340;5.984;2023-02-15T18:03:44;8.06;78.63
47861;HTU21D;33620;52.340;5.984;2023-02-15T18:06:29;8.02;78.80
47861;HTU21D;33620;52.340;5.984;2023-02-15T18:09:15;7.97;79.08
47861;HTU21D;33620;52.340;5.984;2023-02-15T18:11:59;7.94;79.24
47861;HTU21D;33620;52.340;5.984;2023-02-15T18:14:25;7.93;79.40
47861;HTU21D;33620;52.340;5.984;2023-02-15T18:16:50;7.91;79.52
47861;HTU21D;33620;52.340;5.984;2023-02-15T18:19:24;7.91;79.56
47861;HTU21D;33620;52.340;5.984;2023-02-15T18:21:50;7.87;79.65
47861;HTU21D;33620;52.340;5.984;2023-02-15T18:24:23;7.86;79.65
47861;HTU21D;33620;52.340;5.984;2023-02-15T18:26:50;7.83;79.74
47861;HTU21D;33620;52.340;5.984;2023-02-15T18:29:16;7.79;79.73
47861;HTU21D;33620;52.340;5.984;2023-02-15T18:31:43;7.78;79.83
47861;HTU21D;33620;52.340;5.984;2023-02-15T18:34:21;7.74;79.77
47861;HTU21D;33620;52.340;5.984;2023-02-15T18:36:47;7.72;79.78
47861;HTU21D;33620;52.340;5.984;2023-02-15T18:39:37;7.67;79.72